sensor_id;sensor_type;location;lat;lon;timestamp;P1;durP1;ratioP1;P2;durP2;ratioP2
3875;SDS011;1953;51.222;6.624;2023-06-14T00:02:39;13.90;;;10.00;;
3875;SDS011;1953;51.222;6.624;2023-06-14T00:07:33;12.10;;;9.77;;
3875;SDS011;1953;51.222;6.624;2023-06-14T00:13:13;12.00;;;9.70;;
3875;SDS011;1953;51.222;6.624;2023-06-14T00:17:55;10.90;;;9.70;;
3875;SDS011;1953;51.222;6.624;2023-06-14T00:22:41;12.50;;;10.13;;
3875;SDS011;1953;51.222;6.624;2023-06-14T00:27:23;16.07;;;10.00;;
3875;SDS011;1953;51.222;6.624;2023-06-14T00:32:08;15.63;;;10.40;;
3875;SDS011;1953;51.222;6.624;2023-06-14T00:36:51;14.33;;;10.20;;
3875;SDS011;1953;51.222;6.624;2023-06-14T00:41:33;19.93;;;9.83;;
3875;SDS011;1953;51.222;6.624;2023-06-14T00:46:16;10.90;;;9.70;;
3875;SDS011;1953;51.222;6.624;2023-06-14T00:51:01;12.73;;;9.73;;
3875;SDS011;1953;51.222;6.624;2023-06-14T00:55:44;12.20;;;9.07;;
3875;SDS011;1953;51.222;6.624;2023-06-14T01:00:27;12.97;;;10.30;;
3875;SDS011;1953;51.222;6.624;2023-06-14T01:05:10;11.20;;;10.00;;
3875;SDS011;1953;51.222;6.624;2023-06-14T01:09:58;10.60;;;9.47;;
3875;SDS011;1953;51.222;6.624;2023-06-14T01:14:50;10.27;;;9.13;;
3875;SDS011;1953;51.222;6.624;2023-06-14T01:19:35;13.90;;;10.70;;
3875;SDS011;1953;51.222;6.624;2023-06-14T01:24:19;15.77;;;10.37;;
3875;SDS011;1953;51.222;6.624;2023-06-14T01:29:06;13.93;;;11.20;;
3875;SDS011;1953;51.222;6.624;2023-06-14T01:33:51;17.40;;;9.60;;
3875;SDS011;1953;51.222;6.624;2023-06-14T01:38:35;13.50;;;9.60;;
3875;SDS011;1953;51.222;6.624;2023-06-14T01:43:20;11.30;;;9.83;;
3875;SDS011;1953;51.222;6.624;2023-06-14T01:48:04;11.47;;;10.27;;
3875;SDS011;1953;51.222;6.624;2023-06-14T01:52:47;13.07;;;11.20;;
3875;SDS011;1953;51.222;6.624;2023-06-14T01:57:29;12.50;;;11.17;;
3875;SDS011;1953;51.222;6.624;2023-06-14T02:02:14;12.00;;;10.60;;
3875;SDS011;1953;51.222;6.624;2023-06-14T02:06:56;12.60;;;10.00;;
3875;SDS011;1953;51.222;6.624;2023-06-14T02:11:39;15.47;;;11.53;;
3875;SDS011;1953;51.222;6.624;2023-06-14T02:16:21;13.57;;;9.87;;
3875;SDS011;1953;51.222;6.624;2023-06-14T02:21:06;15.20;;;10.53;;
3875;SDS011;1953;51.222;6.624;2023-06-14T02:25:49;14.23;;;10.90;;
3875;SDS011;1953;51.222;6.624;2023-06-14T02:30:31;19.53;;;10.80;;
3875;SDS011;1953;51.222;6.624;2023-06-14T02:35:14;17.40;;;11.50;;
3875;SDS011;1953;51.222;6.624;2023-06-14T02:39:58;17.47;;;10.93;;
3875;SDS011;1953;51.222;6.624;2023-06-14T02:44:41;19.80;;;12.03;;
3875;SDS011;1953;51.222;6.624;2023-06-14T02:49:24;12.87;;;10.70;;
3875;SDS011;1953;51.222;6.624;2023-06-14T02:54:06;17.83;;;11.27;;
3875;SDS011;1953;51.222;6.624;2023-06-14T02:58:50;12.53;;;10.10;;
3875;SDS011;1953;51.222;6.624;2023-06-14T03:03:34;14.83;;;10.80;;
3875;SDS011;1953;51.222;6.624;2023-06-14T03:08:16;11.27;;;10.10;;
3875;SDS011;1953;51.222;6.624;2023-06-14T03:13:00;16.77;;;11.03;;
3875;SDS011;1953;51.222;6.624;2023-06-14T03:17:44;16.90;;;11.53;;
3875;SDS011;1953;51.222;6.624;2023-06-14T03:22:29;13.33;;;10.87;;
3875;SDS011;1953;51.222;6.624;2023-06-14T03:27:13;17.70;;;10.50;;
3875;SDS011;1953;51.222;6.624;2023-06-14T03:31:57;15.60;;;11.40;;
3875;SDS011;1953;51.222;6.624;2023-06-14T03:36:41;15.50;;;12.07;;
3875;SDS011;1953;51.222;6.624;2023-06-14T03:41:24;15.07;;;12.10;;
3875;SDS011;1953;51.222;6.624;2023-06-14T03:46:07;25.07;;;12.10;;
3875;SDS011;1953;51.222;6.624;2023-06-14T03:50:49;15.23;;;11.47;;
3875;SDS011;1953;51.222;6.624;2023-06-14T03:55:33;23.37;;;11.70;;
3875;SDS011;1953;51.222;6.624;2023-06-14T04:00:16;13.20;;;10.50;;
3875;SDS011;1953;51.222;6.624;2023-06-14T04:04:59;18.70;;;10.47;;
3875;SDS011;1953;51.222;6.624;2023-06-14T04:09:43;15.90;;;10.80;;
3875;SDS011;1953;51.222;6.624;2023-06-14T04:14:26;13.73;;;10.70;;
3875;SDS011;1953;51.222;6.624;2023-06-14T04:19:09;13.00;;;9.60;;
3875;SDS011;1953;51.222;6.624;2023-06-14T04:23:52;14.03;;;10.80;;
3875;SDS011;1953;51.222;6.624;2023-06-14T04:28:35;12.57;;;10.60;;
3875;SDS011;1953;51.222;6.624;2023-06-14T04:33:22;16.10;;;10.90;;
3875;SDS011;1953;51.222;6.624;2023-06-14T04:38:06;16.40;;;9.27;;
3875;SDS011;1953;51.222;6.624;2023-06-14T04:42:50;12.20;;;9.63;;
3875;SDS011;1953;51.222;6.624;2023-06-14T04:47:33;14.80;;;10.23;;
3875;SDS011;1953;51.222;6.624;2023-06-14T04:52:19;15.90;;;10.10;;
3875;SDS011;1953;51.222;6.624;2023-06-14T04:57:02;21.67;;;11.03;;
3875;SDS011;1953;51.222;6.624;2023-06-14T05:01:46;14.80;;;10.10;;
3875;SDS011;1953;51.222;6.624;2023-06-14T05:06:29;12.43;;;9.90;;
3875;SDS011;1953;51.222;6.624;2023-06-14T05:11:13;16.63;;;10.00;;
3875;SDS011;1953;51.222;6.624;2023-06-14T05:15:57;20.27;;;10.20;;
3875;SDS011;1953;51.222;6.624;2023-06-14T05:20:41;13.50;;;9.20;;
3875;SDS011;1953;51.222;6.624;2023-06-14T05:25:23;13.00;;;9.07;;
3875;SDS011;1953;51.222;6.624;2023-06-14T05:30:08;12.70;;;9.67;;
3875;SDS011;1953;51.222;6.624;2023-06-14T05:34:51;12.47;;;9.67;;
3875;SDS011;1953;51.222;6.624;2023-06-14T05:39:34;14.77;;;8.87;;
3875;SDS011;1953;51.222;6.624;2023-06-14T05:44:16;11.77;;;9.60;;
3875;SDS011;1953;51.222;6.624;2023-06-14T05:49:00;14.27;;;9.20;;
3875;SDS011;1953;51.222;6.624;2023-06-14T05:53:43;11.13;;;9.20;;
3875;SDS011;1953;51.222;6.624;2023-06-14T05:58:25;10.10;;;8.90;;
3875;SDS011;1953;51.222;6.624;2023-06-14T06:03:08;13.50;;;8.47;;
3875;SDS011;1953;51.222;6.624;2023-06-14T06:07:53;10.80;;;8.90;;
3875;SDS011;1953;51.222;6.624;2023-06-14T06:12:36;14.70;;;8.33;;
3875;SDS011;1953;51.222;6.624;2023-06-14T06:17:19;12.77;;;7.37;;
3875;SDS011;1953;51.222;6.624;2023-06-14T06:22:01;15.23;;;7.70;;
3875;SDS011;1953;51.222;6.624;2023-06-14T06:26:48;9.23;;;7.17;;
3875;SDS011;1953;51.222;6.624;2023-06-14T06:31:30;13.57;;;7.30;;
3875;SDS011;1953;51.222;6.624;2023-06-14T06:36:13;14.33;;;7.80;;
3875;SDS011;1953;51.222;6.624;2023-06-14T06:40:55;16.17;;;6.80;;
3875;SDS011;1953;51.222;6.624;2023-06-14T06:45:39;9.23;;;6.70;;
3875;SDS011;1953;51.222;6.624;2023-06-14T06:50:22;10.73;;;6.40;;
3875;SDS011;1953;51.222;6.624;2023-06-14T06:55:06;9.70;;;6.60;;
3875;SDS011;1953;51.222;6.624;2023-06-14T06:59:49;8.13;;;6.17;;
3875;SDS011;1953;51.222;6.624;2023-06-14T07:04:33;15.70;;;6.23;;
3875;SDS011;1953;51.222;6.624;2023-06-14T07:09:16;8.83;;;5.20;;
3875;SDS011;1953;51.222;6.624;2023-06-14T07:14:01;7.20;;;5.50;;
3875;SDS011;1953;51.222;6.624;2023-06-14T07:18:43;5.20;;;4.70;;
3875;SDS011;1953;51.222;6.624;2023-06-14T07:23:27;6.77;;;4.40;;
3875;SDS011;1953;51.222;6.624;2023-06-14T07:28:10;8.37;;;4.20;;
3875;SDS011;1953;51.222;6.624;2023-06-14T07:32:52;6.10;;;4.00;;
3875;SDS011;1953;51.222;6.624;2023-06-14T07:37:35;3.80;;;3.27;;
3875;SDS011;1953;51.222;6.624;2023-06-14T07:42:19;3.87;;;3.30;;
3875;SDS011;1953;51.222;6.624;2023-06-14T07:47:02;8.53;;;3.03;;
3875;SDS011;1953;51.222;6.624;2023-06-14T07:51:44;4.07;;;3.23;;
3875;SDS011;1953;51.222;6.624;2023-06-14T07:56:27;4.60;;;3.20;;
3875;SDS011;1953;51.222;6.624;2023-06-14T08:01:11;7.83;;;3.77;;
3875;SDS011;1953;51.222;6.624;2023-06-14T08:05:54;9.80;;;3.50;;
3875;SDS011;1953;51.222;6.624;2023-06-14T08:10:36;5.20;;;3.67;;
3875;SDS011;1953;51.222;6.624;2023-06-14T08:15:19;5.70;;;2.97;;
3875;SDS011;1953;51.222;6.624;2023-06-14T08:20:03;3.77;;;3.07;;
3875;SDS011;1953;51.222;6.624;2023-06-14T08:24:47;6.10;;;3.77;;
3875;SDS011;1953;51.222;6.624;2023-06-14T08:29:29;3.67;;;3.27;;
3875;SDS011;1953;51.222;6.624;2023-06-14T08:34:12;5.13;;;2.80;;
3875;SDS011;1953;51.222;6.624;2023-06-14T08:38:56;4.17;;;3.00;;
3875;SDS011;1953;51.222;6.624;2023-06-14T08:43:38;3.67;;;3.00;;
3875;SDS011;1953;51.222;6.624;2023-06-14T08:48:21;3.13;;;2.83;;
3875;SDS011;1953;51.222;6.624;2023-06-14T08:53:07;3.67;;;3.37;;
3875;SDS011;1953;51.222;6.624;2023-06-14T08:57:55;5.50;;;3.60;;
3875;SDS011;1953;51.222;6.624;2023-06-14T09:02:39;3.30;;;3.00;;
3875;SDS011;1953;51.222;6.624;2023-06-14T09:07:24;6.70;;;3.20;;
3875;SDS011;1953;51.222;6.624;2023-06-14T09:12:07;9.20;;;3.40;;
3875;SDS011;1953;51.222;6.624;2023-06-14T09:16:53;3.70;;;3.00;;
3875;SDS011;1953;51.222;6.624;2023-06-14T09:21:36;2.80;;;2.60;;
3875;SDS011;1953;51.222;6.624;2023-06-14T09:26:19;4.53;;;2.40;;
3875;SDS011;1953;51.222;6.624;2023-06-14T09:31:03;3.80;;;3.00;;
3875;SDS011;1953;51.222;6.624;2023-06-14T09:35:47;3.90;;;2.80;;
3875;SDS011;1953;51.222;6.624;2023-06-14T09:40:35;4.33;;;2.93;;
3875;SDS011;1953;51.222;6.624;2023-06-14T09:45:18;7.37;;;3.40;;
3875;SDS011;1953;51.222;6.624;2023-06-14T09:50:03;6.37;;;3.33;;
3875;SDS011;1953;51.222;6.624;2023-06-14T09:54:47;6.27;;;4.00;;
3875;SDS011;1953;51.222;6.624;2023-06-14T09:59:30;5.50;;;3.90;;
3875;SDS011;1953;51.222;6.624;2023-06-14T10:04:14;5.13;;;3.07;;
3875;SDS011;1953;51.222;6.624;2023-06-14T10:09:01;7.20;;;3.77;;
3875;SDS011;1953;51.222;6.624;2023-06-14T10:13:49;4.93;;;3.13;;
3875;SDS011;1953;51.222;6.624;2023-06-14T10:18:33;9.63;;;3.40;;
3875;SDS011;1953;51.222;6.624;2023-06-14T10:23:22;4.30;;;3.90;;
3875;SDS011;1953;51.222;6.624;2023-06-14T10:28:16;6.37;;;3.60;;
3875;SDS011;1953;51.222;6.624;2023-06-14T10:33:07;4.73;;;3.80;;
3875;SDS011;1953;51.222;6.624;2023-06-14T10:37:51;5.37;;;4.00;;
3875;SDS011;1953;51.222;6.624;2023-06-14T10:42:34;5.90;;;3.50;;
3875;SDS011;1953;51.222;6.624;2023-06-14T10:47:26;3.37;;;3.03;;
3875;SDS011;1953;51.222;6.624;2023-06-14T10:52:12;4.50;;;2.97;;
3875;SDS011;1953;51.222;6.624;2023-06-14T10:56:59;2.97;;;2.77;;
3875;SDS011;1953;51.222;6.624;2023-06-14T11:01:51;9.90;;;2.80;;
3875;SDS011;1953;51.222;6.624;2023-06-14T11:06:47;8.67;;;3.23;;
3875;SDS011;1953;51.222;6.624;2023-06-14T11:11:34;3.77;;;3.10;;
3875;SDS011;1953;51.222;6.624;2023-06-14T11:16:19;4.97;;;3.00;;
3875;SDS011;1953;51.222;6.624;2023-06-14T11:21:02;3.40;;;3.20;;
3875;SDS011;1953;51.222;6.624;2023-06-14T11:25:49;6.40;;;2.83;;
3875;SDS011;1953;51.222;6.624;2023-06-14T11:30:33;2.60;;;2.40;;
3875;SDS011;1953;51.222;6.624;2023-06-14T11:35:16;3.67;;;3.10;;
3875;SDS011;1953;51.222;6.624;2023-06-14T11:39:59;3.50;;;3.20;;
3875;SDS011;1953;51.222;6.624;2023-06-14T11:44:41;3.43;;;3.23;;
3875;SDS011;1953;51.222;6.624;2023-06-14T11:49:25;5.07;;;3.60;;
3875;SDS011;1953;51.222;6.624;2023-06-14T11:54:08;3.57;;;2.90;;
3875;SDS011;1953;51.222;6.624;2023-06-14T11:58:52;4.30;;;3.70;;
3875;SDS011;1953;51.222;6.624;2023-06-14T12:03:37;4.00;;;3.57;;
3875;SDS011;1953;51.222;6.624;2023-06-14T12:08:34;3.27;;;2.97;;
3875;SDS011;1953;51.222;6.624;2023-06-14T12:14:14;3.50;;;3.20;;
3875;SDS011;1953;51.222;6.624;2023-06-14T12:18:59;3.10;;;2.93;;
3875;SDS011;1953;51.222;6.624;2023-06-14T12:23:43;3.33;;;3.03;;
3875;SDS011;1953;51.222;6.624;2023-06-14T12:28:30;13.20;;;3.45;;
3875;SDS011;1953;51.222;6.624;2023-06-14T12:33:15;3.28;;;2.40;;
3875;SDS011;1953;51.222;6.624;2023-06-14T12:37:57;3.75;;;2.50;;
3875;SDS011;1953;51.222;6.624;2023-06-14T12:42:40;2.53;;;2.40;;
3875;SDS011;1953;51.222;6.624;2023-06-14T12:47:23;2.47;;;2.38;;
3875;SDS011;1953;51.222;6.624;2023-06-14T12:52:07;7.75;;;2.05;;
3875;SDS011;1953;51.222;6.624;2023-06-14T12:56:50;2.17;;;2.00;;
3875;SDS011;1953;51.222;6.624;2023-06-14T13:01:33;2.53;;;2.10;;
3875;SDS011;1953;51.222;6.624;2023-06-14T13:06:16;2.00;;;2.00;;
3875;SDS011;1953;51.222;6.624;2023-06-14T13:11:00;2.40;;;2.30;;
3875;SDS011;1953;51.222;6.624;2023-06-14T13:15:42;2.10;;;2.00;;
3875;SDS011;1953;51.222;6.624;2023-06-14T13:20:26;2.35;;;2.20;;
3875;SDS011;1953;51.222;6.624;2023-06-14T13:25:09;4.95;;;2.22;;
3875;SDS011;1953;51.222;6.624;2023-06-14T13:29:53;2.13;;;1.83;;
3875;SDS011;1953;51.222;6.624;2023-06-14T13:34:36;3.00;;;2.15;;
3875;SDS011;1953;51.222;6.624;2023-06-14T13:39:18;2.10;;;2.10;;
3875;SDS011;1953;51.222;6.624;2023-06-14T13:48:13;1.90;;;1.80;;
3875;SDS011;1953;51.222;6.624;2023-06-14T13:52:55;2.17;;;2.08;;
3875;SDS011;1953;51.222;6.624;2023-06-14T13:57:38;1.80;;;1.80;;
3875;SDS011;1953;51.222;6.624;2023-06-14T14:02:20;2.47;;;2.05;;
3875;SDS011;1953;51.222;6.624;2023-06-14T14:07:05;2.53;;;1.90;;
3875;SDS011;1953;51.222;6.624;2023-06-14T14:11:48;2.05;;;1.95;;
3875;SDS011;1953;51.222;6.624;2023-06-14T14:16:30;3.47;;;1.90;;
3875;SDS011;1953;51.222;6.624;2023-06-14T14:21:13;2.88;;;1.98;;
3875;SDS011;1953;51.222;6.624;2023-06-14T14:25:57;3.25;;;2.38;;
3875;SDS011;1953;51.222;6.624;2023-06-14T14:30:41;2.40;;;2.30;;
3875;SDS011;1953;51.222;6.624;2023-06-14T14:35:24;3.55;;;2.20;;
3875;SDS011;1953;51.222;6.624;2023-06-14T14:40:11;2.65;;;2.55;;
3875;SDS011;1953;51.222;6.624;2023-06-14T14:44:55;2.78;;;2.20;;
3875;SDS011;1953;51.222;6.624;2023-06-14T14:49:38;3.50;;;2.40;;
3875;SDS011;1953;51.222;6.624;2023-06-14T14:54:20;2.30;;;2.30;;
3875;SDS011;1953;51.222;6.624;2023-06-14T14:59:04;2.47;;;2.30;;
3875;SDS011;1953;51.222;6.624;2023-06-14T15:03:47;2.25;;;2.15;;
3875;SDS011;1953;51.222;6.624;2023-06-14T15:08:30;5.57;;;1.90;;
3875;SDS011;1953;51.222;6.624;2023-06-14T15:13:13;2.28;;;2.28;;
3875;SDS011;1953;51.222;6.624;2023-06-14T15:17:55;3.30;;;2.50;;
3875;SDS011;1953;51.222;6.624;2023-06-14T15:22:39;2.60;;;2.40;;
3875;SDS011;1953;51.222;6.624;2023-06-14T15:27:22;2.75;;;2.30;;
3875;SDS011;1953;51.222;6.624;2023-06-14T15:32:06;2.30;;;2.20;;
3875;SDS011;1953;51.222;6.624;2023-06-14T15:36:49;2.30;;;2.20;;
3875;SDS011;1953;51.222;6.624;2023-06-14T15:41:33;3.97;;;2.28;;
3875;SDS011;1953;51.222;6.624;2023-06-14T15:46:16;2.30;;;2.17;;
3875;SDS011;1953;51.222;6.624;2023-06-14T15:50:58;3.25;;;2.35;;
3875;SDS011;1953;51.222;6.624;2023-06-14T15:55:41;6.55;;;2.58;;
3875;SDS011;1953;51.222;6.624;2023-06-14T16:00:25;2.95;;;2.33;;
3875;SDS011;1953;51.222;6.624;2023-06-14T16:05:08;2.60;;;2.40;;
3875;SDS011;1953;51.222;6.624;2023-06-14T16:09:50;2.83;;;2.70;;
3875;SDS011;1953;51.222;6.624;2023-06-14T16:14:33;2.85;;;2.75;;
3875;SDS011;1953;51.222;6.624;2023-06-14T16:19:17;3.83;;;2.65;;
3875;SDS011;1953;51.222;6.624;2023-06-14T16:23:59;8.18;;;2.70;;
3875;SDS011;1953;51.222;6.624;2023-06-14T16:28:42;3.90;;;2.75;;
3875;SDS011;1953;51.222;6.624;2023-06-14T16:33:24;3.15;;;2.40;;
3875;SDS011;1953;51.222;6.624;2023-06-14T16:38:08;5.47;;;2.47;;
3875;SDS011;1953;51.222;6.624;2023-06-14T16:42:51;4.13;;;2.47;;
3875;SDS011;1953;51.222;6.624;2023-06-14T16:47:33;2.70;;;2.60;;
3875;SDS011;1953;51.222;6.624;2023-06-14T16:52:16;3.20;;;3.10;;
3875;SDS011;1953;51.222;6.624;2023-06-14T16:57:00;3.40;;;3.20;;
3875;SDS011;1953;51.222;6.624;2023-06-14T17:01:42;3.30;;;3.10;;
3875;SDS011;1953;51.222;6.624;2023-06-14T17:06:25;3.42;;;3.15;;
3875;SDS011;1953;51.222;6.624;2023-06-14T17:11:07;9.32;;;2.70;;
3875;SDS011;1953;51.222;6.624;2023-06-14T17:15:51;2.83;;;2.80;;
3875;SDS011;1953;51.222;6.624;2023-06-14T17:20:34;2.88;;;2.78;;
3875;SDS011;1953;51.222;6.624;2023-06-14T17:25:17;5.53;;;3.00;;
3875;SDS011;1953;51.222;6.624;2023-06-14T17:30:00;4.20;;;3.28;;
3875;SDS011;1953;51.222;6.624;2023-06-14T17:34:43;2.95;;;2.85;;
3875;SDS011;1953;51.222;6.624;2023-06-14T17:39:26;3.45;;;2.80;;
3875;SDS011;1953;51.222;6.624;2023-06-14T17:44:08;3.03;;;2.83;;
3875;SDS011;1953;51.222;6.624;2023-06-14T17:48:51;3.92;;;3.42;;
3875;SDS011;1953;51.222;6.624;2023-06-14T17:53:35;3.13;;;2.97;;
3875;SDS011;1953;51.222;6.624;2023-06-14T17:58:18;6.30;;;3.08;;
3875;SDS011;1953;51.222;6.624;2023-06-14T18:03:01;2.90;;;2.70;;
3875;SDS011;1953;51.222;6.624;2023-06-14T18:07:43;4.07;;;3.85;;
3875;SDS011;1953;51.222;6.624;2023-06-14T18:12:27;8.77;;;3.40;;
3875;SDS011;1953;51.222;6.624;2023-06-14T18:17:10;5.13;;;3.28;;
3875;SDS011;1953;51.222;6.624;2023-06-14T18:21:52;7.60;;;3.25;;
3875;SDS011;1953;51.222;6.624;2023-06-14T18:26:35;4.97;;;2.97;;
3875;SDS011;1953;51.222;6.624;2023-06-14T18:31:19;2.90;;;2.80;;
3875;SDS011;1953;51.222;6.624;2023-06-14T18:36:02;5.82;;;3.10;;
3875;SDS011;1953;51.222;6.624;2023-06-14T18:40:45;8.77;;;3.47;;
3875;SDS011;1953;51.222;6.624;2023-06-14T18:45:27;4.38;;;3.20;;
3875;SDS011;1953;51.222;6.624;2023-06-14T18:50:13;3.80;;;3.47;;
3875;SDS011;1953;51.222;6.624;2023-06-14T18:54:55;3.78;;;3.47;;
3875;SDS011;1953;51.222;6.624;2023-06-14T18:59:38;9.43;;;3.50;;
3875;SDS011;1953;51.222;6.624;2023-06-14T19:04:20;3.35;;;3.05;;
3875;SDS011;1953;51.222;6.624;2023-06-14T19:09:04;5.23;;;3.03;;
3875;SDS011;1953;51.222;6.624;2023-06-14T19:13:47;5.33;;;3.27;;
3875;SDS011;1953;51.222;6.624;2023-06-14T19:18:29;3.27;;;3.07;;
3875;SDS011;1953;51.222;6.624;2023-06-14T19:23:12;4.17;;;3.13;;
3875;SDS011;1953;51.222;6.624;2023-06-14T19:27:57;5.77;;;3.10;;
3875;SDS011;1953;51.222;6.624;2023-06-14T19:32:40;4.20;;;3.50;;
3875;SDS011;1953;51.222;6.624;2023-06-14T19:37:23;9.43;;;3.87;;
3875;SDS011;1953;51.222;6.624;2023-06-14T19:42:05;4.20;;;3.80;;
3875;SDS011;1953;51.222;6.624;2023-06-14T19:46:50;3.80;;;3.40;;
3875;SDS011;1953;51.222;6.624;2023-06-14T19:51:32;4.43;;;4.03;;
3875;SDS011;1953;51.222;6.624;2023-06-14T19:56:15;7.73;;;3.63;;
3875;SDS011;1953;51.222;6.624;2023-06-14T20:00:58;3.97;;;3.67;;
3875;SDS011;1953;51.222;6.624;2023-06-14T20:05:42;3.73;;;3.43;;
3875;SDS011;1953;51.222;6.624;2023-06-14T20:10:24;7.40;;;3.63;;
3875;SDS011;1953;51.222;6.624;2023-06-14T20:15:08;4.60;;;3.73;;
3875;SDS011;1953;51.222;6.624;2023-06-14T20:19:51;4.50;;;3.80;;
3875;SDS011;1953;51.222;6.624;2023-06-14T20:24:35;4.00;;;3.70;;
3875;SDS011;1953;51.222;6.624;2023-06-14T20:29:18;6.23;;;3.60;;
3875;SDS011;1953;51.222;6.624;2023-06-14T20:34:01;4.10;;;3.70;;
3875;SDS011;1953;51.222;6.624;2023-06-14T20:38:45;4.10;;;3.70;;
3875;SDS011;1953;51.222;6.624;2023-06-14T20:43:29;4.13;;;3.83;;
3875;SDS011;1953;51.222;6.624;2023-06-14T20:48:11;12.07;;;4.03;;
3875;SDS011;1953;51.222;6.624;2023-06-14T20:52:54;12.23;;;3.87;;
3875;SDS011;1953;51.222;6.624;2023-06-14T20:57:36;5.47;;;4.30;;
3875;SDS011;1953;51.222;6.624;2023-06-14T21:02:20;9.33;;;3.57;;
3875;SDS011;1953;51.222;6.624;2023-06-14T21:07:03;5.70;;;4.20;;
3875;SDS011;1953;51.222;6.624;2023-06-14T21:11:46;5.47;;;4.07;;
3875;SDS011;1953;51.222;6.624;2023-06-14T21:16:29;14.43;;;4.50;;
3875;SDS011;1953;51.222;6.624;2023-06-14T21:21:12;5.80;;;4.43;;
3875;SDS011;1953;51.222;6.624;2023-06-14T21:25:55;5.90;;;4.10;;
3875;SDS011;1953;51.222;6.624;2023-06-14T21:30:37;4.40;;;4.10;;
3875;SDS011;1953;51.222;6.624;2023-06-14T21:35:20;5.50;;;4.20;;
3875;SDS011;1953;51.222;6.624;2023-06-14T21:40:05;5.17;;;4.73;;
3875;SDS011;1953;51.222;6.624;2023-06-14T21:44:48;6.90;;;4.43;;
3875;SDS011;1953;51.222;6.624;2023-06-14T21:49:32;4.87;;;4.47;;
3875;SDS011;1953;51.222;6.624;2023-06-14T21:54:14;5.87;;;4.57;;
3875;SDS011;1953;51.222;6.624;2023-06-14T21:58:58;5.03;;;4.00;;
3875;SDS011;1953;51.222;6.624;2023-06-14T22:03:40;8.30;;;4.40;;
3875;SDS011;1953;51.222;6.624;2023-06-14T22:08:23;5.33;;;4.30;;
3875;SDS011;1953;51.222;6.624;2023-06-14T22:13:06;4.97;;;4.57;;
3875;SDS011;1953;51.222;6.624;2023-06-14T22:17:51;4.53;;;4.13;;
3875;SDS011;1953;51.222;6.624;2023-06-14T22:22:36;5.23;;;4.73;;
3875;SDS011;1953;51.222;6.624;2023-06-14T22:27:20;5.40;;;4.90;;
3875;SDS011;1953;51.222;6.624;2023-06-14T22:32:08;5.70;;;4.63;;
3875;SDS011;1953;51.222;6.624;2023-06-14T22:36:52;5.37;;;4.83;;
3875;SDS011;1953;51.222;6.624;2023-06-14T22:41:35;5.70;;;4.80;;
3875;SDS011;1953;51.222;6.624;2023-06-14T22:46:18;5.70;;;4.43;;
3875;SDS011;1953;51.222;6.624;2023-06-14T22:51:03;8.70;;;4.70;;
3875;SDS011;1953;51.222;6.624;2023-06-14T22:55:47;7.70;;;4.40;;
3875;SDS011;1953;51.222;6.624;2023-06-14T23:00:30;10.37;;;5.17;;
3875;SDS011;1953;51.222;6.624;2023-06-14T23:05:12;5.13;;;4.63;;
3875;SDS011;1953;51.222;6.624;2023-06-14T23:09:58;5.77;;;5.23;;
3875;SDS011;1953;51.222;6.624;2023-06-14T23:14:42;6.83;;;5.23;;
3875;SDS011;1953;51.222;6.624;2023-06-14T23:19:25;6.60;;;5.13;;
3875;SDS011;1953;51.222;6.624;2023-06-14T23:24:10;7.90;;;4.90;;
3875;SDS011;1953;51.222;6.624;2023-06-14T23:28:53;5.83;;;5.33;;
3875;SDS011;1953;51.222;6.624;2023-06-14T23:33:38;5.23;;;4.73;;
3875;SDS011;1953;51.222;6.624;2023-06-14T23:38:21;7.20;;;5.43;;
3875;SDS011;1953;51.222;6.624;2023-06-14T23:43:03;5.20;;;4.70;;
3875;SDS011;1953;51.222;6.624;2023-06-14T23:47:47;5.37;;;4.70;;
3875;SDS011;1953;51.222;6.624;2023-06-14T23:52:31;7.00;;;4.80;;
3875;SDS011;1953;51.222;6.624;2023-06-14T23:57:14;5.17;;;4.67;;
